sensor_id;sensor_type;location;lat;lon;timestamp;P1;P2;P0
69205;PMS7003;56319;48.920;2.332;2023-04-24T00:01:49;3.00;2.00;1.25
69205;PMS7003;56319;48.920;2.332;2023-04-24T00:04:15;2.00;2.00;2.00
69205;PMS7003;56319;48.920;2.332;2023-04-24T00:06:42;1.00;1.00;0.00
69205;PMS7003;56319;48.920;2.332;2023-04-24T00:09:09;3.00;2.00;2.00
69205;PMS7003;56319;48.920;2.332;2023-04-24T00:11:35;2.00;2.00;1.50
69205;PMS7003;56319;48.920;2.332;2023-04-24T00:14:01;2.00;2.00;2.00
69205;PMS7003;56319;48.920;2.332;2023-04-24T00:16:27;2.00;2.00;2.00
69205;PMS7003;56319;48.920;2.332;2023-04-24T00:18:54;3.25;2.50;2.00
69205;PMS7003;56319;48.920;2.332;2023-04-24T00:21:19;2.00;2.00;1.50
69205;PMS7003;56319;48.920;2.332;2023-04-24T00:23:45;2.00;2.00;2.00
69205;PMS7003;56319;48.920;2.332;2023-04-24T00:26:11;1.00;1.00;1.00
69205;PMS7003;56319;48.920;2.332;2023-04-24T00:28:36;2.00;2.00;2.00
69205;PMS7003;56319;48.920;2.332;2023-04-24T00:31:02;2.00;2.00;2.00
69205;PMS7003;56319;48.920;2.332;2023-04-24T00:33:28;2.50;2.50;2.00
69205;PMS7003;56319;48.920;2.332;2023-04-24T00:35:53;1.00;1.00;1.00
69205;PMS7003;56319;48.920;2.332;2023-04-24T00:38:19;2.00;2.00;1.50
69205;PMS7003;56319;48.920;2.332;2023-04-24T00:40:44;2.00;2.00;2.00
69205;PMS7003;56319;48.920;2.332;2023-04-24T00:43:10;1.75;1.75;1.25
69205;PMS7003;56319;48.920;2.332;2023-04-24T00:45:37;1.75;1.75;1.75
69205;PMS7003;56319;48.920;2.332;2023-04-24T00:48:02;2.00;2.00;2.00
69205;PMS7003;56319;48.920;2.332;2023-04-24T00:50:29;2.00;1.00;1.00
69205;PMS7003;56319;48.920;2.332;2023-04-24T00:52:55;1.00;1.00;1.00
69205;PMS7003;56319;48.920;2.332;2023-04-24T00:55:21;1.75;1.75;1.50
69205;PMS7003;56319;48.920;2.332;2023-04-24T00:57:47;2.00;2.00;1.50
69205;PMS7003;56319;48.920;2.332;2023-04-24T01:00:14;3.00;2.00;2.00
69205;PMS7003;56319;48.920;2.332;2023-04-24T01:02:41;1.00;1.00;1.00
69205;PMS7003;56319;48.920;2.332;2023-04-24T01:05:11;2.50;2.50;2.00
69205;PMS7003;56319;48.920;2.332;2023-04-24T01:07:38;3.00;1.50;1.25
69205;PMS7003;56319;48.920;2.332;2023-04-24T01:10:06;2.75;2.75;2.25
69205;PMS7003;56319;48.920;2.332;2023-04-24T01:12:33;1.00;1.00;1.00
69205;PMS7003;56319;48.920;2.332;2023-04-24T01:14:58;1.00;1.00;1.00
69205;PMS7003;56319;48.920;2.332;2023-04-24T01:17:24;1.00;1.00;1.00
69205;PMS7003;56319;48.920;2.332;2023-04-24T01:19:50;2.00;2.00;1.00
69205;PMS7003;56319;48.920;2.332;2023-04-24T01:22:18;1.75;1.75;1.75
69205;PMS7003;56319;48.920;2.332;2023-04-24T01:24:45;1.25;1.25;1.00
69205;PMS7003;56319;48.920;2.332;2023-04-24T01:27:11;2.00;2.00;2.00
69205;PMS7003;56319;48.920;2.332;2023-04-24T01:29:37;2.50;2.00;1.50
69205;PMS7003;56319;48.920;2.332;2023-04-24T01:32:03;1.00;1.00;1.00
69205;PMS7003;56319;48.920;2.332;2023-04-24T01:34:30;3.75;1.00;1.00
69205;PMS7003;56319;48.920;2.332;2023-04-24T01:36:55;2.00;2.00;2.00
69205;PMS7003;56319;48.920;2.332;2023-04-24T01:39:21;1.75;1.75;1.00
69205;PMS7003;56319;48.920;2.332;2023-04-24T01:41:48;1.00;1.00;1.00
69205;PMS7003;56319;48.920;2.332;2023-04-24T01:44:15;1.00;1.00;1.00
69205;PMS7003;56319;48.920;2.332;2023-04-24T01:46:42;2.00;2.00;2.00
69205;PMS7003;56319;48.920;2.332;2023-04-24T01:49:08;1.00;1.00;1.00
69205;PMS7003;56319;48.920;2.332;2023-04-24T01:51:33;1.25;1.25;1.25
69205;PMS7003;56319;48.920;2.332;2023-04-24T01:53:59;2.25;2.25;2.00
69205;PMS7003;56319;48.920;2.332;2023-04-24T01:56:24;1.00;1.00;1.00
69205;PMS7003;56319;48.920;2.332;2023-04-24T01:58:51;1.75;1.75;1.00
69205;PMS7003;56319;48.920;2.332;2023-04-24T02:01:19;1.75;1.75;1.00
69205;PMS7003;56319;48.920;2.332;2023-04-24T02:03:45;2.00;2.00;1.75
69205;PMS7003;56319;48.920;2.332;2023-04-24T02:06:10;2.00;2.00;2.00
69205;PMS7003;56319;48.920;2.332;2023-04-24T02:08:36;3.00;2.00;2.00
69205;PMS7003;56319;48.920;2.332;2023-04-24T02:11:02;2.00;2.00;1.50
69205;PMS7003;56319;48.920;2.332;2023-04-24T02:13:28;2.00;2.00;2.00
69205;PMS7003;56319;48.920;2.332;2023-04-24T02:15:53;2.00;2.00;2.00
69205;PMS7003;56319;48.920;2.332;2023-04-24T02:18:19;3.00;2.00;2.00
69205;PMS7003;56319;48.920;2.332;2023-04-24T02:20:45;1.75;1.75;1.50
69205;PMS7003;56319;48.920;2.332;2023-04-24T02:23:10;2.00;2.00;2.00
69205;PMS7003;56319;48.920;2.332;2023-04-24T02:25:36;2.50;2.50;2.00
69205;PMS7003;56319;48.920;2.332;2023-04-24T02:28:02;2.00;2.00;2.00
69205;PMS7003;56319;48.920;2.332;2023-04-24T02:30:28;1.00;0.75;0.75
69205;PMS7003;56319;48.920;2.332;2023-04-24T02:32:53;2.00;2.00;2.00
69205;PMS7003;56319;48.920;2.332;2023-04-24T02:35:19;2.00;2.00;1.50
69205;PMS7003;56319;48.920;2.332;2023-04-24T02:37:45;0.50;0.50;0.00
69205;PMS7003;56319;48.920;2.332;2023-04-24T02:40:10;2.25;2.25;2.00
69205;PMS7003;56319;48.920;2.332;2023-04-24T02:42:36;2.00;2.00;2.00
69205;PMS7003;56319;48.920;2.332;2023-04-24T02:45:01;1.00;1.00;1.00
69205;PMS7003;56319;48.920;2.332;2023-04-24T02:47:27;2.75;2.00;2.00
69205;PMS7003;56319;48.920;2.332;2023-04-24T02:49:53;2.00;1.00;1.00
69205;PMS7003;56319;48.920;2.332;2023-04-24T02:52:18;1.25;1.25;1.25
69205;PMS7003;56319;48.920;2.332;2023-04-24T02:54:43;2.00;1.00;1.00
69205;PMS7003;56319;48.920;2.332;2023-04-24T02:57:09;2.75;2.00;1.25
69205;PMS7003;56319;48.920;2.332;2023-04-24T02:59:35;1.00;1.00;1.00
69205;PMS7003;56319;48.920;2.332;2023-04-24T03:02:00;2.25;2.25;1.75
69205;PMS7003;56319;48.920;2.332;2023-04-24T03:04:26;1.75;1.75;1.25
69205;PMS7003;56319;48.920;2.332;2023-04-24T03:06:51;2.25;2.00;2.00
69205;PMS7003;56319;48.920;2.332;2023-04-24T03:09:20;2.00;2.00;2.00
69205;PMS7003;56319;48.920;2.332;2023-04-24T03:11:46;3.00;2.00;2.00
69205;PMS7003;56319;48.920;2.332;2023-04-24T03:14:12;1.25;1.25;1.00
69205;PMS7003;56319;48.920;2.332;2023-04-24T03:16:37;2.00;1.00;1.00
69205;PMS7003;56319;48.920;2.332;2023-04-24T03:19:03;1.00;1.00;1.00
69205;PMS7003;56319;48.920;2.332;2023-04-24T03:21:28;1.25;1.25;1.25
69205;PMS7003;56319;48.920;2.332;2023-04-24T03:23:54;2.50;2.50;2.00
69205;PMS7003;56319;48.920;2.332;2023-04-24T03:26:20;1.00;1.00;1.00
69205;PMS7003;56319;48.920;2.332;2023-04-24T03:28:45;2.00;2.00;2.00
69205;PMS7003;56319;48.920;2.332;2023-04-24T03:31:11;1.75;1.75;1.75
69205;PMS7003;56319;48.920;2.332;2023-04-24T03:33:36;2.00;1.00;1.00
69205;PMS7003;56319;48.920;2.332;2023-04-24T03:36:02;4.00;2.00;2.00
69205;PMS7003;56319;48.920;2.332;2023-04-24T03:38:27;1.00;1.00;1.00
69205;PMS7003;56319;48.920;2.332;2023-04-24T03:40:53;2.00;1.00;1.00
69205;PMS7003;56319;48.920;2.332;2023-04-24T03:43:18;2.00;2.00;2.00
69205;PMS7003;56319;48.920;2.332;2023-04-24T03:45:44;2.00;2.00;2.00
69205;PMS7003;56319;48.920;2.332;2023-04-24T03:48:10;1.75;1.50;1.50
69205;PMS7003;56319;48.920;2.332;2023-04-24T03:50:36;1.75;1.75;1.00
69205;PMS7003;56319;48.920;2.332;2023-04-24T03:53:01;1.00;1.00;1.00
69205;PMS7003;56319;48.920;2.332;2023-04-24T03:55:26;2.00;2.00;2.00
69205;PMS7003;56319;48.920;2.332;2023-04-24T03:57:52;2.00;2.00;2.00
69205;PMS7003;56319;48.920;2.332;2023-04-24T04:00:17;3.00;2.00;1.00
69205;PMS7003;56319;48.920;2.332;2023-04-24T04:02:43;1.00;1.00;1.00
69205;PMS7003;56319;48.920;2.332;2023-04-24T04:05:09;0.00;0.00;0.00
69205;PMS7003;56319;48.920;2.332;2023-04-24T04:07:34;1.00;1.00;1.00
69205;PMS7003;56319;48.920;2.332;2023-04-24T04:10:00;2.00;2.00;1.50
69205;PMS7003;56319;48.920;2.332;2023-04-24T04:12:25;1.00;1.00;1.00
69205;PMS7003;56319;48.920;2.332;2023-04-24T04:14:51;1.00;1.00;1.00
69205;PMS7003;56319;48.920;2.332;2023-04-24T04:17:16;3.75;2.50;2.00
69205;PMS7003;56319;48.920;2.332;2023-04-24T04:19:42;2.00;2.00;2.00
69205;PMS7003;56319;48.920;2.332;2023-04-24T04:22:08;3.00;3.00;2.00
69205;PMS7003;56319;48.920;2.332;2023-04-24T04:24:33;1.00;1.00;1.00
69205;PMS7003;56319;48.920;2.332;2023-04-24T04:27:03;2.00;2.00;1.00
69205;PMS7003;56319;48.920;2.332;2023-04-24T04:29:30;2.00;2.00;1.25
69205;PMS7003;56319;48.920;2.332;2023-04-24T04:31:56;0.50;0.50;0.50
69205;PMS7003;56319;48.920;2.332;2023-04-24T04:34:22;1.75;1.75;1.75
69205;PMS7003;56319;48.920;2.332;2023-04-24T04:36:48;2.00;2.00;2.00
69205;PMS7003;56319;48.920;2.332;2023-04-24T04:39:13;2.00;2.00;2.00
69205;PMS7003;56319;48.920;2.332;2023-04-24T04:41:40;3.00;1.75;1.25
69205;PMS7003;56319;48.920;2.332;2023-04-24T04:44:06;2.00;2.00;1.75
69205;PMS7003;56319;48.920;2.332;2023-04-24T04:46:34;1.00;1.00;1.00
69205;PMS7003;56319;48.920;2.332;2023-04-24T04:49:00;1.00;1.00;1.00
69205;PMS7003;56319;48.920;2.332;2023-04-24T04:51:26;4.50;2.00;1.00
69205;PMS7003;56319;48.920;2.332;2023-04-24T04:53:52;2.00;2.00;2.00
69205;PMS7003;56319;48.920;2.332;2023-04-24T04:56:18;1.00;1.00;1.00
69205;PMS7003;56319;48.920;2.332;2023-04-24T04:58:44;1.50;1.50;1.00
69205;PMS7003;56319;48.920;2.332;2023-04-24T05:01:10;1.00;1.00;1.00
69205;PMS7003;56319;48.920;2.332;2023-04-24T05:03:35;1.50;1.00;1.00
69205;PMS7003;56319;48.920;2.332;2023-04-24T05:06:01;3.00;3.00;2.00
69205;PMS7003;56319;48.920;2.332;2023-04-24T05:08:27;2.50;2.00;2.00
69205;PMS7003;56319;48.920;2.332;2023-04-24T05:10:53;1.00;1.00;1.00
69205;PMS7003;56319;48.920;2.332;2023-04-24T05:13:19;1.25;1.25;1.00
69205;PMS7003;56319;48.920;2.332;2023-04-24T05:15:45;2.00;2.00;2.00
69205;PMS7003;56319;48.920;2.332;2023-04-24T05:18:11;1.00;1.00;1.00
69205;PMS7003;56319;48.920;2.332;2023-04-24T05:20:36;2.00;2.00;1.50
69205;PMS7003;56319;48.920;2.332;2023-04-24T05:23:02;1.00;0.75;0.50
69205;PMS7003;56319;48.920;2.332;2023-04-24T05:25:27;2.75;1.50;1.00
69205;PMS7003;56319;48.920;2.332;2023-04-24T05:27:53;1.00;1.00;1.00
69205;PMS7003;56319;48.920;2.332;2023-04-24T05:30:18;2.00;2.00;1.25
69205;PMS7003;56319;48.920;2.332;2023-04-24T05:32:44;2.00;2.00;2.00
69205;PMS7003;56319;48.920;2.332;2023-04-24T05:35:10;1.75;1.25;1.00
69205;PMS7003;56319;48.920;2.332;2023-04-24T05:37:35;1.00;1.00;1.00
69205;PMS7003;56319;48.920;2.332;2023-04-24T05:40:01;2.00;2.00;2.00
69205;PMS7003;56319;48.920;2.332;2023-04-24T05:42:28;2.00;2.00;2.00
69205;PMS7003;56319;48.920;2.332;2023-04-24T05:44:54;2.00;2.00;1.75
69205;PMS7003;56319;48.920;2.332;2023-04-24T05:47:19;2.75;2.00;1.75
69205;PMS7003;56319;48.920;2.332;2023-04-24T05:49:47;3.25;2.00;2.00
69205;PMS7003;56319;48.920;2.332;2023-04-24T05:52:13;2.00;2.00;2.00
69205;PMS7003;56319;48.920;2.332;2023-04-24T05:54:38;2.00;2.00;2.00
69205;PMS7003;56319;48.920;2.332;2023-04-24T05:57:04;4.25;3.00;2.00
69205;PMS7003;56319;48.920;2.332;2023-04-24T05:59:33;3.75;2.00;2.00
69205;PMS7003;56319;48.920;2.332;2023-04-24T06:01:59;0.00;0.00;0.00
69205;PMS7003;56319;48.920;2.332;2023-04-24T06:04:25;3.00;2.00;2.00
69205;PMS7003;56319;48.920;2.332;2023-04-24T06:06:51;2.00;2.00;1.50
69205;PMS7003;56319;48.920;2.332;2023-04-24T06:09:21;1.50;1.50;1.50
69205;PMS7003;56319;48.920;2.332;2023-04-24T06:11:47;2.00;2.00;2.00
69205;PMS7003;56319;48.920;2.332;2023-04-24T06:14:13;3.00;2.00;1.25
69205;PMS7003;56319;48.920;2.332;2023-04-24T06:16:40;1.50;1.50;1.50
69205;PMS7003;56319;48.920;2.332;2023-04-24T06:19:07;2.00;2.00;2.00
69205;PMS7003;56319;48.920;2.332;2023-04-24T06:21:32;2.00;2.00;1.25
69205;PMS7003;56319;48.920;2.332;2023-04-24T06:23:58;2.75;2.00;1.00
69205;PMS7003;56319;48.920;2.332;2023-04-24T06:26:23;3.50;2.00;2.00
69205;PMS7003;56319;48.920;2.332;2023-04-24T06:28:50;1.75;1.75;1.25
69205;PMS7003;56319;48.920;2.332;2023-04-24T06:31:16;1.00;1.00;1.00
69205;PMS7003;56319;48.920;2.332;2023-04-24T06:33:42;4.00;1.00;1.00
69205;PMS7003;56319;48.920;2.332;2023-04-24T06:36:08;2.00;2.00;1.50
69205;PMS7003;56319;48.920;2.332;2023-04-24T06:38:33;2.00;2.00;2.00
69205;PMS7003;56319;48.920;2.332;2023-04-24T06:40:59;2.25;2.25;2.00
69205;PMS7003;56319;48.920;2.332;2023-04-24T06:43:25;2.00;2.00;2.00
69205;PMS7003;56319;48.920;2.332;2023-04-24T06:45:50;1.50;1.50;1.50
69205;PMS7003;56319;48.920;2.332;2023-04-24T06:48:16;1.00;1.00;1.00
69205;PMS7003;56319;48.920;2.332;2023-04-24T06:50:41;3.00;3.00;2.75
69205;PMS7003;56319;48.920;2.332;2023-04-24T06:53:07;1.50;1.50;1.00
69205;PMS7003;56319;48.920;2.332;2023-04-24T06:55:33;1.25;1.25;1.00
69205;PMS7003;56319;48.920;2.332;2023-04-24T06:57:59;2.75;1.75;1.75
69205;PMS7003;56319;48.920;2.332;2023-04-24T07:00:24;2.50;2.00;1.50
69205;PMS7003;56319;48.920;2.332;2023-04-24T07:02:50;2.00;2.00;2.00
69205;PMS7003;56319;48.920;2.332;2023-04-24T07:05:15;3.50;2.00;2.00
69205;PMS7003;56319;48.920;2.332;2023-04-24T07:07:45;3.00;2.50;2.00
69205;PMS7003;56319;48.920;2.332;2023-04-24T07:10:12;1.00;1.00;1.00
69205;PMS7003;56319;48.920;2.332;2023-04-24T07:12:38;2.50;2.00;1.00
69205;PMS7003;56319;48.920;2.332;2023-04-24T07:15:04;2.00;2.00;2.00
69205;PMS7003;56319;48.920;2.332;2023-04-24T07:17:31;3.00;3.00;3.00
69205;PMS7003;56319;48.920;2.332;2023-04-24T07:19:56;2.50;2.50;2.00
69205;PMS7003;56319;48.920;2.332;2023-04-24T07:22:22;1.00;1.00;1.00
69205;PMS7003;56319;48.920;2.332;2023-04-24T07:24:48;2.00;2.00;2.00
69205;PMS7003;56319;48.920;2.332;2023-04-24T07:27:13;2.00;2.00;2.00
69205;PMS7003;56319;48.920;2.332;2023-04-24T07:29:40;3.00;3.00;2.75
69205;PMS7003;56319;48.920;2.332;2023-04-24T07:32:05;1.00;1.00;1.00
69205;PMS7003;56319;48.920;2.332;2023-04-24T07:34:31;2.00;2.00;2.00
69205;PMS7003;56319;48.920;2.332;2023-04-24T07:36:56;3.00;3.00;2.00
69205;PMS7003;56319;48.920;2.332;2023-04-24T07:39:22;3.50;2.25;2.00
69205;PMS7003;56319;48.920;2.332;2023-04-24T07:41:48;2.00;2.00;2.00
69205;PMS7003;56319;48.920;2.332;2023-04-24T07:44:14;2.25;2.25;2.00
69205;PMS7003;56319;48.920;2.332;2023-04-24T07:46:39;2.75;2.75;2.50
69205;PMS7003;56319;48.920;2.332;2023-04-24T07:49:05;3.00;3.00;2.00
69205;PMS7003;56319;48.920;2.332;2023-04-24T07:51:31;3.00;3.00;2.00
69205;PMS7003;56319;48.920;2.332;2023-04-24T07:53:59;4.50;2.00;2.00
69205;PMS7003;56319;48.920;2.332;2023-04-24T07:56:25;1.75;1.75;1.00
69205;PMS7003;56319;48.920;2.332;2023-04-24T07:58:51;3.00;2.75;2.75
69205;PMS7003;56319;48.920;2.332;2023-04-24T08:01:16;3.25;3.25;2.75
69205;PMS7003;56319;48.920;2.332;2023-04-24T08:03:42;4.75;3.00;2.25
69205;PMS7003;56319;48.920;2.332;2023-04-24T08:06:07;3.00;2.50;2.00
69205;PMS7003;56319;48.920;2.332;2023-04-24T08:08:33;2.25;2.25;2.00
69205;PMS7003;56319;48.920;2.332;2023-04-24T08:10:59;3.00;3.00;3.00
69205;PMS7003;56319;48.920;2.332;2023-04-24T08:13:24;4.00;2.75;2.00
69205;PMS7003;56319;48.920;2.332;2023-04-24T08:15:50;3.00;3.00;3.00
69205;PMS7003;56319;48.920;2.332;2023-04-24T08:18:15;4.75;3.00;2.75
69205;PMS7003;56319;48.920;2.332;2023-04-24T08:20:41;3.50;3.50;3.00
69205;PMS7003;56319;48.920;2.332;2023-04-24T08:23:07;4.00;4.00;3.75
69205;PMS7003;56319;48.920;2.332;2023-04-24T08:25:32;3.00;2.00;1.75
69205;PMS7003;56319;48.920;2.332;2023-04-24T08:28:01;3.00;2.00;2.00
69205;PMS7003;56319;48.920;2.332;2023-04-24T08:30:28;3.50;3.00;2.25
69205;PMS7003;56319;48.920;2.332;2023-04-24T08:32:54;2.75;2.75;2.00
69205;PMS7003;56319;48.920;2.332;2023-04-24T08:35:20;3.00;3.00;3.00
69205;PMS7003;56319;48.920;2.332;2023-04-24T08:37:45;3.00;3.00;2.75
69205;PMS7003;56319;48.920;2.332;2023-04-24T08:40:13;3.50;2.00;2.00
69205;PMS7003;56319;48.920;2.332;2023-04-24T08:42:41;3.25;2.00;2.00
69205;PMS7003;56319;48.920;2.332;2023-04-24T08:45:09;2.25;2.25;2.00
69205;PMS7003;56319;48.920;2.332;2023-04-24T08:47:36;2.50;2.50;2.00
69205;PMS7003;56319;48.920;2.332;2023-04-24T08:50:03;3.00;3.00;2.25
69205;PMS7003;56319;48.920;2.332;2023-04-24T08:52:32;6.00;4.00;3.00
69205;PMS7003;56319;48.920;2.332;2023-04-24T08:54:58;4.50;4.00;3.00
69205;PMS7003;56319;48.920;2.332;2023-04-24T08:57:25;3.25;3.25;3.25
69205;PMS7003;56319;48.920;2.332;2023-04-24T08:59:51;3.75;3.00;3.00
69205;PMS7003;56319;48.920;2.332;2023-04-24T09:02:18;3.75;3.75;3.00
69205;PMS7003;56319;48.920;2.332;2023-04-24T09:04:44;3.00;3.00;3.00
69205;PMS7003;56319;48.920;2.332;2023-04-24T09:07:12;3.00;3.00;2.75
69205;PMS7003;56319;48.920;2.332;2023-04-24T09:09:40;5.00;4.00;3.00
69205;PMS7003;56319;48.920;2.332;2023-04-24T09:12:07;3.75;3.75;2.50
69205;PMS7003;56319;48.920;2.332;2023-04-24T09:14:34;5.00;4.50;3.00
69205;PMS7003;56319;48.920;2.332;2023-04-24T09:17:01;1.00;1.00;0.25
69205;PMS7003;56319;48.920;2.332;2023-04-24T09:19:27;5.75;4.50;4.00
69205;PMS7003;56319;48.920;2.332;2023-04-24T09:21:52;4.00;4.00;3.75
69205;PMS7003;56319;48.920;2.332;2023-04-24T09:24:20;4.50;4.50;4.00
69205;PMS7003;56319;48.920;2.332;2023-04-24T09:26:48;4.00;4.00;3.75
69205;PMS7003;56319;48.920;2.332;2023-04-24T09:29:15;5.00;5.00;3.75
69205;PMS7003;56319;48.920;2.332;2023-04-24T09:31:42;3.50;3.50;3.00
69205;PMS7003;56319;48.920;2.332;2023-04-24T09:34:08;5.00;3.00;3.00
69205;PMS7003;56319;48.920;2.332;2023-04-24T09:36:35;5.00;4.25;3.00
69205;PMS7003;56319;48.920;2.332;2023-04-24T09:39:03;2.75;2.00;2.00
69205;PMS7003;56319;48.920;2.332;2023-04-24T09:41:33;6.00;5.00;4.25
69205;PMS7003;56319;48.920;2.332;2023-04-24T09:46:52;4.00;4.00;4.00
69205;PMS7003;56319;48.920;2.332;2023-04-24T09:49:24;7.00;6.50;5.75
69205;PMS7003;56319;48.920;2.332;2023-04-24T09:51:51;9.00;9.00;7.00
69205;PMS7003;56319;48.920;2.332;2023-04-24T09:54:18;11.00;11.00;8.50
69205;PMS7003;56319;48.920;2.332;2023-04-24T09:56:47;12.25;10.75;9.00
69205;PMS7003;56319;48.920;2.332;2023-04-24T09:59:16;14.00;12.00;9.75
69205;PMS7003;56319;48.920;2.332;2023-04-24T10:01:43;14.25;12.75;9.25
69205;PMS7003;56319;48.920;2.332;2023-04-24T10:04:16;15.50;13.00;11.00
69205;PMS7003;56319;48.920;2.332;2023-04-24T10:06:46;13.00;13.00;10.00
69205;PMS7003;56319;48.920;2.332;2023-04-24T10:09:13;20.75;13.75;10.00
69205;PMS7003;56319;48.920;2.332;2023-04-24T10:11:41;20.25;15.00;11.00
69205;PMS7003;56319;48.920;2.332;2023-04-24T10:14:13;18.75;14.25;10.00
69205;PMS7003;56319;48.920;2.332;2023-04-24T10:16:40;14.75;14.50;11.00
69205;PMS7003;56319;48.920;2.332;2023-04-24T10:19:06;13.75;13.00;10.25
69205;PMS7003;56319;48.920;2.332;2023-04-24T10:21:32;13.00;12.25;9.75
69205;PMS7003;56319;48.920;2.332;2023-04-24T10:23:59;13.00;11.25;9.00
69205;PMS7003;56319;48.920;2.332;2023-04-24T10:26:28;13.50;11.50;9.00
69205;PMS7003;56319;48.920;2.332;2023-04-24T10:28:54;12.75;11.50;9.00
69205;PMS7003;56319;48.920;2.332;2023-04-24T10:31:23;13.25;10.50;8.75
69205;PMS7003;56319;48.920;2.332;2023-04-24T10:33:50;13.25;12.00;8.00
69205;PMS7003;56319;48.920;2.332;2023-04-24T10:36:17;9.00;9.00;7.25
69205;PMS7003;56319;48.920;2.332;2023-04-24T10:38:43;15.25;11.75;8.75
69205;PMS7003;56319;48.920;2.332;2023-04-24T10:41:12;9.75;8.50;7.25
69205;PMS7003;56319;48.920;2.332;2023-04-24T10:43:44;9.75;8.50;8.00
69205;PMS7003;56319;48.920;2.332;2023-04-24T10:46:10;10.75;7.50;6.00
69205;PMS7003;56319;48.920;2.332;2023-04-24T10:48:44;10.00;8.00;7.00
69205;PMS7003;56319;48.920;2.332;2023-04-24T10:51:18;12.00;8.25;6.25
69205;PMS7003;56319;48.920;2.332;2023-04-24T10:53:47;9.25;7.25;6.00
69205;PMS7003;56319;48.920;2.332;2023-04-24T10:56:15;8.75;8.50;7.00
69205;PMS7003;56319;48.920;2.332;2023-04-24T10:58:43;7.00;7.00;6.00
69205;PMS7003;56319;48.920;2.332;2023-04-24T11:03:58;7.75;7.75;6.00
69205;PMS7003;56319;48.920;2.332;2023-04-24T11:06:28;9.00;8.00;7.00
69205;PMS7003;56319;48.920;2.332;2023-04-24T11:11:45;5.50;5.50;4.25
69205;PMS7003;56319;48.920;2.332;2023-04-24T11:14:14;6.00;6.00;6.00
69205;PMS7003;56319;48.920;2.332;2023-04-24T11:16:42;7.00;6.25;5.00
69205;PMS7003;56319;48.920;2.332;2023-04-24T11:19:25;7.75;7.75;6.00
69205;PMS7003;56319;48.920;2.332;2023-04-24T11:21:58;8.25;7.00;6.00
69205;PMS7003;56319;48.920;2.332;2023-04-24T11:24:38;6.00;5.25;4.00
69205;PMS7003;56319;48.920;2.332;2023-04-24T11:27:06;7.00;7.00;6.00
69205;PMS7003;56319;48.920;2.332;2023-04-24T11:32:33;7.75;6.25;5.00
69205;PMS7003;56319;48.920;2.332;2023-04-24T11:35:03;7.25;6.00;5.25
69205;PMS7003;56319;48.920;2.332;2023-04-24T11:37:34;7.25;7.00;6.00
69205;PMS7003;56319;48.920;2.332;2023-04-24T11:40:02;9.00;8.00;6.50
69205;PMS7003;56319;48.920;2.332;2023-04-24T11:45:16;7.25;5.25;4.25
69205;PMS7003;56319;48.920;2.332;2023-04-24T11:47:46;6.75;6.00;4.75
69205;PMS7003;56319;48.920;2.332;2023-04-24T11:50:12;6.75;6.75;5.75
69205;PMS7003;56319;48.920;2.332;2023-04-24T11:52:41;7.50;7.00;6.00
69205;PMS7003;56319;48.920;2.332;2023-04-24T11:55:22;7.00;5.75;5.00
69205;PMS7003;56319;48.920;2.332;2023-04-24T11:57:53;6.50;6.50;5.75
69205;PMS7003;56319;48.920;2.332;2023-04-24T12:00:22;9.00;6.00;5.75
69205;PMS7003;56319;48.920;2.332;2023-04-24T12:02:50;5.00;5.00;4.25
69205;PMS7003;56319;48.920;2.332;2023-04-24T12:05:20;7.00;7.00;6.00
69205;PMS7003;56319;48.920;2.332;2023-04-24T12:07:51;6.00;5.25;4.50
69205;PMS7003;56319;48.920;2.332;2023-04-24T12:13:02;7.00;7.00;6.00
69205;PMS7003;56319;48.920;2.332;2023-04-24T12:15:28;8.00;6.25;5.00
69205;PMS7003;56319;48.920;2.332;2023-04-24T12:17:54;7.25;7.25;5.50
69205;PMS7003;56319;48.920;2.332;2023-04-24T12:20:24;8.00;7.00;6.00
69205;PMS7003;56319;48.920;2.332;2023-04-24T12:22:53;6.75;6.00;5.00
69205;PMS7003;56319;48.920;2.332;2023-04-24T12:25:22;6.50;6.50;5.00
69205;PMS7003;56319;48.920;2.332;2023-04-24T12:27:54;7.75;6.00;5.75
69205;PMS7003;56319;48.920;2.332;2023-04-24T12:30:39;5.75;5.75;5.00
69205;PMS7003;56319;48.920;2.332;2023-04-24T12:33:06;8.00;6.75;5.25
69205;PMS7003;56319;48.920;2.332;2023-04-24T12:35:32;8.00;7.50;6.00
69205;PMS7003;56319;48.920;2.332;2023-04-24T12:40:47;7.50;6.50;6.00
69205;PMS7003;56319;48.920;2.332;2023-04-24T12:43:15;5.50;5.50;5.25
69205;PMS7003;56319;48.920;2.332;2023-04-24T12:45:42;6.00;5.00;4.25
69205;PMS7003;56319;48.920;2.332;2023-04-24T12:48:10;4.00;3.75;3.00
69205;PMS7003;56319;48.920;2.332;2023-04-24T12:50:35;5.50;5.50;5.00
69205;PMS7003;56319;48.920;2.332;2023-04-24T12:53:01;6.75;5.00;5.00
69205;PMS7003;56319;48.920;2.332;2023-04-24T12:55:27;5.00;5.00;4.00
69205;PMS7003;56319;48.920;2.332;2023-04-24T12:57:52;6.00;6.00;5.00
69205;PMS7003;56319;48.920;2.332;2023-04-24T13:00:20;5.25;5.25;5.00
69205;PMS7003;56319;48.920;2.332;2023-04-24T13:02:46;5.00;5.00;4.00
69205;PMS7003;56319;48.920;2.332;2023-04-24T13:05:11;4.75;4.75;4.00
69205;PMS7003;56319;48.920;2.332;2023-04-24T13:07:39;5.00;5.00;4.50
69205;PMS7003;56319;48.920;2.332;2023-04-24T13:10:05;4.00;4.00;3.25
69205;PMS7003;56319;48.920;2.332;2023-04-24T13:12:31;4.00;4.00;3.50
69205;PMS7003;56319;48.920;2.332;2023-04-24T13:14:57;5.00;5.00;4.50
69205;PMS7003;56319;48.920;2.332;2023-04-24T13:17:23;4.50;4.25;4.00
69205;PMS7003;56319;48.920;2.332;2023-04-24T13:19:50;5.25;5.00;4.00
69205;PMS7003;56319;48.920;2.332;2023-04-24T13:22:16;4.25;4.25;4.00
69205;PMS7003;56319;48.920;2.332;2023-04-24T13:24:43;4.00;4.00;4.00
69205;PMS7003;56319;48.920;2.332;2023-04-24T13:27:09;5.00;4.00;3.00
69205;PMS7003;56319;48.920;2.332;2023-04-24T13:29:36;4.50;4.50;4.00
69205;PMS7003;56319;48.920;2.332;2023-04-24T13:32:02;4.75;4.75;4.00
69205;PMS7003;56319;48.920;2.332;2023-04-24T13:34:27;4.00;4.00;3.75
69205;PMS7003;56319;48.920;2.332;2023-04-24T13:36:53;6.00;4.25;4.00
69205;PMS7003;56319;48.920;2.332;2023-04-24T13:39:23;4.00;4.00;3.25
69205;PMS7003;56319;48.920;2.332;2023-04-24T13:41:50;6.00;4.00;4.00
69205;PMS7003;56319;48.920;2.332;2023-04-24T13:44:16;4.75;4.00;3.00
69205;PMS7003;56319;48.920;2.332;2023-04-24T13:46:43;4.25;4.25;4.00
69205;PMS7003;56319;48.920;2.332;2023-04-24T13:49:10;3.75;3.75;3.50
69205;PMS7003;56319;48.920;2.332;2023-04-24T13:51:36;5.50;5.00;4.50
69205;PMS7003;56319;48.920;2.332;2023-04-24T13:54:02;4.25;4.25;4.00
69205;PMS7003;56319;48.920;2.332;2023-04-24T13:56:28;5.00;4.00;4.00
69205;PMS7003;56319;48.920;2.332;2023-04-24T13:58:53;4.00;3.50;3.00
69205;PMS7003;56319;48.920;2.332;2023-04-24T14:01:19;3.25;3.25;3.00
69205;PMS7003;56319;48.920;2.332;2023-04-24T14:03:49;5.00;5.00;4.00
69205;PMS7003;56319;48.920;2.332;2023-04-24T14:06:15;3.75;3.75;3.50
69205;PMS7003;56319;48.920;2.332;2023-04-24T14:08:41;4.25;4.00;4.00
69205;PMS7003;56319;48.920;2.332;2023-04-24T14:11:06;4.00;3.50;3.00
69205;PMS7003;56319;48.920;2.332;2023-04-24T14:13:32;3.75;3.75;3.50
69205;PMS7003;56319;48.920;2.332;2023-04-24T14:15:58;3.00;3.00;3.00
69205;PMS7003;56319;48.920;2.332;2023-04-24T14:18:23;4.75;4.75;3.50
69205;PMS7003;56319;48.920;2.332;2023-04-24T14:20:49;4.00;3.75;3.00
69205;PMS7003;56319;48.920;2.332;2023-04-24T14:23:15;3.50;3.50;3.50
69205;PMS7003;56319;48.920;2.332;2023-04-24T14:25:40;4.00;4.00;3.25
69205;PMS7003;56319;48.920;2.332;2023-04-24T14:28:06;4.00;4.00;3.50
69205;PMS7003;56319;48.920;2.332;2023-04-24T14:30:32;5.00;4.00;3.50
69205;PMS7003;56319;48.920;2.332;2023-04-24T14:32:57;4.00;4.00;3.00
69205;PMS7003;56319;48.920;2.332;2023-04-24T14:35:23;3.00;3.00;3.00
69205;PMS7003;56319;48.920;2.332;2023-04-24T14:37:48;4.50;4.00;3.25